createdAt,value
2018-03-14T00:00:56.884Z,92.70
2018-03-14T00:03:25.188Z,92.70
2018-03-14T00:05:53.622Z,92.60
2018-03-14T00:08:22.724Z,92.50
2018-03-14T00:10:51.786Z,92.50
2018-03-14T00:13:20.121Z,92.50
2018-03-14T00:15:48.439Z,92.60
2018-03-14T00:18:16.770Z,92.50
2018-03-14T00:20:45.080Z,92.40
2018-03-14T00:23:13.609Z,92.40
2018-03-14T00:25:42.739Z,92.40
2018-03-14T00:28:11.082Z,92.40
2018-03-14T00:30:39.361Z,92.40
2018-03-14T00:33:07.652Z,92.40
2018-03-14T00:35:35.935Z,92.50
2018-03-14T00:38:05.161Z,92.40
2018-03-14T00:40:33.592Z,92.40
2018-03-14T00:43:01.897Z,92.50
2018-03-14T00:45:30.190Z,92.50
2018-03-14T00:47:58.540Z,92.50
2018-03-14T00:50:26.887Z,92.50
2018-03-14T00:52:55.174Z,92.60
2018-03-14T00:55:23.516Z,92.50
2018-03-14T00:57:52.558Z,92.60
2018-03-14T01:00:20.856Z,92.50
2018-03-14T01:02:49.130Z,92.50
2018-03-14T01:05:17.443Z,92.60
2018-03-14T01:07:46.489Z,92.60
2018-03-14T01:10:14.782Z,92.60
2018-03-14T01:12:43.075Z,92.60
2018-03-14T01:15:11.417Z,92.60
2018-03-14T01:17:40.415Z,92.60
2018-03-14T01:20:08.721Z,92.60
2018-03-14T01:22:36.994Z,92.70
2018-03-14T01:25:05.401Z,92.70
2018-03-14T01:27:34.617Z,92.70
2018-03-14T01:30:03.016Z,92.70
2018-03-14T01:32:31.307Z,92.70
2018-03-14T01:35:00.474Z,92.80
2018-03-14T01:37:29.581Z,92.90
2018-03-14T01:39:57.859Z,92.80
2018-03-14T01:42:26.328Z,92.90
2018-03-14T01:44:54.618Z,92.80
2018-03-14T01:47:22.918Z,93.20
2018-03-14T01:49:51.190Z,92.80
2018-03-14T01:52:19.600Z,92.80
2018-03-14T01:54:47.887Z,93.30
2018-03-14T01:57:16.206Z,92.80
2018-03-14T01:59:44.498Z,92.80
2018-03-14T02:02:12.794Z,92.90
2018-03-14T02:04:41.824Z,92.90
2018-03-14T02:07:10.141Z,92.80
2018-03-14T02:09:38.425Z,92.90
2018-03-14T02:12:07.497Z,92.80
2018-03-14T02:14:35.802Z,92.80
2018-03-14T02:17:04.869Z,92.80
2018-03-14T02:19:33.244Z,92.80
2018-03-14T02:22:01.539Z,92.70
2018-03-14T02:24:30.594Z,92.60
2018-03-14T02:26:59.003Z,92.60
2018-03-14T02:29:27.288Z,92.60
2018-03-14T02:31:56.344Z,92.60
2018-03-14T02:34:24.634Z,92.60
2018-03-14T02:37:01.838Z,92.60
2018-03-14T02:39:30.280Z,92.70
2018-03-14T02:41:58.599Z,93.00
2018-03-14T02:44:27.757Z,92.60
2018-03-14T02:46:56.045Z,92.60
2018-03-14T02:49:24.888Z,92.60
2018-03-14T02:51:53.159Z,92.70
2018-03-14T02:54:21.451Z,92.70
2018-03-14T02:56:49.721Z,92.70
2018-03-14T02:59:18.090Z,92.60
2018-03-14T03:01:46.394Z,92.60
2018-03-14T03:04:14.695Z,92.60
2018-03-14T03:06:42.965Z,92.50
2018-03-14T03:09:11.243Z,92.60
2018-03-14T03:11:39.528Z,92.50
2018-03-14T03:14:07.869Z,92.40
2018-03-14T03:16:36.142Z,92.40
2018-03-14T03:19:04.422Z,92.30
2018-03-14T03:21:32.823Z,92.40
2018-03-14T03:24:01.131Z,92.30
2018-03-14T03:26:29.434Z,92.40
2018-03-14T03:28:57.718Z,92.30
2018-03-14T03:31:26.011Z,92.50
2018-03-14T03:33:54.450Z,92.40
2018-03-14T03:36:22.747Z,92.50
2018-03-14T03:38:51.034Z,92.50
2018-03-14T03:41:19.390Z,92.30
2018-03-14T03:43:47.662Z,92.30
2018-03-14T03:46:15.963Z,92.30
2018-03-14T03:48:44.257Z,92.20
2018-03-14T03:51:12.554Z,92.20
2018-03-14T03:53:41.626Z,92.30
2018-03-14T03:56:09.924Z,92.30
2018-03-14T03:58:40.514Z,92.30
2018-03-14T04:01:08.979Z,92.30
2018-03-14T04:03:37.276Z,92.30
2018-03-14T04:06:05.575Z,92.30
2018-03-14T04:08:34.671Z,92.30
2018-03-14T04:11:03.711Z,92.40
2018-03-14T04:13:32.020Z,92.30
2018-03-14T04:16:00.311Z,92.40
2018-03-14T04:18:29.371Z,92.50
2018-03-14T04:20:57.651Z,92.40
2018-03-14T04:23:25.952Z,92.60
2018-03-14T04:25:54.995Z,92.50
2018-03-14T04:28:23.276Z,92.50
2018-03-14T04:30:51.568Z,92.50
2018-03-14T04:33:19.860Z,92.50
2018-03-14T04:35:48.260Z,92.50
2018-03-14T04:38:16.542Z,92.40
2018-03-14T04:40:45.619Z,92.40
2018-03-14T04:43:14.660Z,92.40
2018-03-14T04:45:42.950Z,92.40
2018-03-14T04:48:11.237Z,92.30
2018-03-14T04:50:39.521Z,92.50
2018-03-14T04:53:07.812Z,92.50
2018-03-14T04:55:36.864Z,92.40
2018-03-14T04:58:05.157Z,92.40
2018-03-14T05:00:33.442Z,92.40
2018-03-14T05:03:01.788Z,92.40
2018-03-14T05:05:30.076Z,92.20
2018-03-14T05:07:58.355Z,92.20
2018-03-14T05:10:26.785Z,91.90
2018-03-14T05:12:55.822Z,92.00
2018-03-14T05:15:24.121Z,92.00
2018-03-14T05:17:52.391Z,92.00
2018-03-14T05:20:20.697Z,92.10
2018-03-14T05:22:49.826Z,92.10
2018-03-14T05:25:18.271Z,92.10
2018-03-14T05:27:47.318Z,92.30
2018-03-14T05:30:15.923Z,92.30
2018-03-14T05:32:44.202Z,92.40
2018-03-14T05:35:12.523Z,92.50
2018-03-14T05:37:40.810Z,92.50
2018-03-14T05:40:09.104Z,92.60
2018-03-14T05:42:37.420Z,92.70
2018-03-14T05:45:06.478Z,92.80
2018-03-14T05:47:34.818Z,92.80
2018-03-14T05:50:03.096Z,92.90
2018-03-14T05:52:31.433Z,92.80
2018-03-14T05:55:00.523Z,93.10
2018-03-14T05:57:29.649Z,93.20
2018-03-14T05:59:58.088Z,93.20
2018-03-14T06:02:26.406Z,93.20
2018-03-14T06:04:54.773Z,93.30
2018-03-14T06:07:23.097Z,93.40
2018-03-14T06:09:51.389Z,93.40
2018-03-14T06:12:20.476Z,93.20
2018-03-14T06:14:48.760Z,93.20
2018-03-14T06:17:17.050Z,93.10
2018-03-14T06:19:46.114Z,93.40
2018-03-14T06:22:14.439Z,93.30
2018-03-14T06:24:42.702Z,93.40
2018-03-14T06:27:11.038Z,93.40
2018-03-14T06:29:39.357Z,93.60
2018-03-14T06:32:07.700Z,93.70
2018-03-14T06:34:36.014Z,93.80
2018-03-14T06:37:04.334Z,93.90
2018-03-14T06:39:32.648Z,94.00
2018-03-14T06:42:01.702Z,94.00
2018-03-14T06:44:30.006Z,93.90
2018-03-14T06:46:58.267Z,94.10
2018-03-14T06:49:26.618Z,94.00
2018-03-14T06:51:54.905Z,94.40
2018-03-14T06:54:23.203Z,94.00
2018-03-14T06:56:51.519Z,94.10
2018-03-14T06:59:31.692Z,94.20
2018-03-14T07:02:11.798Z,94.00
2018-03-14T07:07:39.436Z,93.90
2018-03-14T07:10:07.838Z,93.80
2018-03-14T07:12:36.106Z,93.90
2018-03-14T07:15:04.418Z,93.60
2018-03-14T07:17:32.790Z,93.60
2018-03-14T07:20:01.944Z,93.30
2018-03-14T07:22:30.314Z,93.30
2018-03-14T07:24:58.818Z,93.10
2018-03-14T07:27:27.163Z,92.80
2018-03-14T07:29:55.446Z,92.60
2018-03-14T07:32:23.756Z,92.30
2018-03-14T07:34:52.016Z,92.50
2018-03-14T07:37:20.319Z,92.60
2018-03-14T07:39:49.372Z,92.40
2018-03-14T07:42:17.682Z,92.30
2018-03-14T07:44:46.800Z,92.80
2018-03-14T07:47:15.077Z,92.70
2018-03-14T07:49:43.408Z,92.70
2018-03-14T07:52:11.798Z,92.80
2018-03-14T07:54:40.843Z,92.00
2018-03-14T07:57:09.246Z,91.90
2018-03-14T07:59:37.543Z,91.90
2018-03-14T08:02:06.628Z,91.50
2018-03-14T08:04:34.906Z,91.50
2018-03-14T08:07:03.234Z,91.70
2018-03-14T08:09:31.539Z,91.40
2018-03-14T08:11:59.850Z,91.50
2018-03-14T08:14:28.890Z,91.20
2018-03-14T08:16:57.182Z,91.10
2018-03-14T08:19:25.640Z,91.20
2018-03-14T08:21:54.204Z,91.00
2018-03-14T08:24:22.491Z,91.10
2018-03-14T08:26:50.776Z,91.00
2018-03-14T08:29:19.073Z,90.40
2018-03-14T08:31:48.134Z,89.70
2018-03-14T08:34:16.463Z,89.60
2018-03-14T08:36:44.735Z,89.20
2018-03-14T08:39:13.058Z,89.20
2018-03-14T08:41:41.388Z,88.00
2018-03-14T08:44:10.451Z,88.10
2018-03-14T08:46:38.729Z,88.10
2018-03-14T08:49:07.028Z,87.00
2018-03-14T08:51:35.367Z,86.10
2018-03-14T08:54:03.682Z,87.40
2018-03-14T08:56:32.781Z,84.30
2018-03-14T08:59:01.237Z,84.20
2018-03-14T09:01:29.515Z,84.60
2018-03-14T09:03:57.786Z,85.10
2018-03-14T09:06:26.237Z,85.30
2018-03-14T09:08:54.529Z,84.70
2018-03-14T09:11:22.819Z,84.40
2018-03-14T09:13:51.247Z,84.40
2018-03-14T09:16:19.750Z,84.20
2018-03-14T09:18:48.062Z,84.10
2018-03-14T09:21:16.347Z,83.80
2018-03-14T09:23:44.630Z,83.70
2018-03-14T09:26:12.930Z,84.00
2018-03-14T09:28:42.016Z,82.20
2018-03-14T09:31:10.290Z,82.10
2018-03-14T09:33:38.650Z,81.80
2018-03-14T09:36:07.011Z,81.80
2018-03-14T09:38:36.854Z,81.10
2018-03-14T09:41:05.913Z,81.30
2018-03-14T09:43:34.217Z,81.30
2018-03-14T09:46:03.274Z,80.30
2018-03-14T09:48:31.580Z,80.30
2018-03-14T09:51:00.614Z,79.30
2018-03-14T09:53:28.963Z,79.10
2018-03-14T09:55:57.261Z,78.00
2018-03-14T09:58:25.600Z,76.10
2018-03-14T10:00:53.869Z,75.30
2018-03-14T10:03:23.674Z,71.30
2018-03-14T10:05:51.958Z,71.40
2018-03-14T10:08:21.088Z,69.30
2018-03-14T10:10:49.376Z,69.30
2018-03-14T10:13:17.676Z,71.00
2018-03-14T10:15:45.999Z,68.70
2018-03-14T10:18:14.317Z,68.80
2018-03-14T10:20:42.590Z,69.60
2018-03-14T10:23:10.870Z,70.10
2018-03-14T10:25:39.392Z,70.10
2018-03-14T10:28:08.358Z,71.10
2018-03-14T10:30:36.696Z,71.00
2018-03-14T10:33:05.117Z,69.90
2018-03-14T10:35:33.419Z,67.80
2018-03-14T10:38:02.471Z,67.60
2018-03-14T10:40:30.825Z,67.60
2018-03-14T10:42:59.082Z,68.00
2018-03-14T10:45:27.375Z,69.00
2018-03-14T10:47:55.669Z,69.00
2018-03-14T10:50:24.142Z,68.50
2018-03-14T10:52:52.447Z,67.10
2018-03-14T10:55:20.749Z,66.40
2018-03-14T10:57:49.806Z,66.70
2018-03-14T11:00:18.206Z,66.70
2018-03-14T11:02:47.262Z,65.30
2018-03-14T11:05:15.563Z,65.20
2018-03-14T11:07:43.880Z,65.40
2018-03-14T11:10:12.145Z,62.50
2018-03-14T11:12:40.454Z,64.20
2018-03-14T11:15:08.730Z,63.50
2018-03-14T11:17:37.066Z,61.90
2018-03-14T11:20:05.385Z,61.70
2018-03-14T11:22:33.736Z,61.50
2018-03-14T11:25:02.012Z,60.50
2018-03-14T11:27:30.312Z,58.90
2018-03-14T11:29:58.610Z,60.50
2018-03-14T11:32:26.963Z,61.60
2018-03-14T11:34:55.339Z,60.30
2018-03-14T11:37:23.659Z,58.60
2018-03-14T11:39:51.998Z,58.80
2018-03-14T11:42:20.331Z,58.90
2018-03-14T11:44:48.579Z,57.70
2018-03-14T11:47:16.871Z,58.90
2018-03-14T11:49:45.228Z,58.20
2018-03-14T11:52:13.513Z,56.00
2018-03-14T11:54:41.928Z,56.20
2018-03-14T11:57:10.259Z,56.80
2018-03-14T11:59:38.539Z,58.00
2018-03-14T12:02:07.601Z,58.40
2018-03-14T12:04:35.887Z,58.40
2018-03-14T12:07:05.759Z,57.80
2018-03-14T12:09:34.051Z,57.80
2018-03-14T12:12:02.352Z,55.40
2018-03-14T12:14:30.831Z,55.20
2018-03-14T12:16:59.102Z,55.60
2018-03-14T12:19:27.426Z,55.40
2018-03-14T12:21:55.699Z,54.70
2018-03-14T12:24:24.019Z,55.40
2018-03-14T12:26:52.311Z,55.60
2018-03-14T12:29:20.612Z,55.00
2018-03-14T12:31:49.659Z,54.90
2018-03-14T12:34:18.119Z,54.80
2018-03-14T12:36:46.409Z,55.80
2018-03-14T12:39:14.713Z,55.80
2018-03-14T12:41:42.988Z,56.00
2018-03-14T12:44:11.452Z,55.60
2018-03-14T12:46:39.884Z,55.30
2018-03-14T12:49:08.200Z,56.10
2018-03-14T12:51:36.503Z,55.90
2018-03-14T12:54:04.829Z,55.20
2018-03-14T12:56:33.111Z,56.20
2018-03-14T12:59:01.417Z,54.90
2018-03-14T13:01:29.724Z,54.80
2018-03-14T13:03:58.775Z,55.00
2018-03-14T13:06:27.075Z,55.00
2018-03-14T13:08:56.143Z,55.20
2018-03-14T13:11:24.456Z,55.20
2018-03-14T13:13:52.701Z,55.00
2018-03-14T13:16:21.030Z,54.80
2018-03-14T13:18:49.355Z,54.70
2018-03-14T13:21:17.692Z,54.10
2018-03-14T13:23:45.988Z,55.30
2018-03-14T13:26:14.287Z,55.10
2018-03-14T13:28:42.575Z,54.70
2018-03-14T13:31:10.874Z,54.20
2018-03-14T13:33:39.931Z,53.90
2018-03-14T13:36:08.437Z,54.00
2018-03-14T13:38:37.622Z,53.50
2018-03-14T13:41:05.914Z,53.40
2018-03-14T13:43:34.237Z,54.00
2018-03-14T13:46:02.507Z,51.80
2018-03-14T13:48:30.842Z,52.40
2018-03-14T13:51:00.707Z,52.30
2018-03-14T13:53:28.975Z,52.30
2018-03-14T13:55:57.242Z,51.90
2018-03-14T13:58:25.570Z,52.30
2018-03-14T14:00:54.630Z,52.30
2018-03-14T14:03:22.910Z,51.60
2018-03-14T14:05:51.404Z,51.00
2018-03-14T14:08:20.552Z,51.60
2018-03-14T14:10:48.830Z,51.60
2018-03-14T14:13:17.134Z,51.70
2018-03-14T14:15:46.365Z,51.30
2018-03-14T14:18:15.418Z,51.10
2018-03-14T14:20:43.780Z,51.00
2018-03-14T14:23:12.085Z,51.10
2018-03-14T14:25:40.620Z,51.30
2018-03-14T14:28:08.889Z,51.20
2018-03-14T14:30:37.179Z,51.10
2018-03-14T14:33:05.451Z,51.20
2018-03-14T14:35:33.780Z,50.00
2018-03-14T14:38:02.111Z,50.70
2018-03-14T14:40:30.406Z,50.20
2018-03-14T14:42:58.687Z,50.80
2018-03-14T14:45:27.037Z,50.40
2018-03-14T14:47:55.414Z,51.00
2018-03-14T14:50:23.737Z,49.80
2018-03-14T14:52:52.604Z,51.20
2018-03-14T14:55:21.626Z,51.50
2018-03-14T14:57:49.972Z,51.00
2018-03-14T15:00:18.304Z,50.80
2018-03-14T15:02:46.637Z,50.70
2018-03-14T15:05:16.437Z,51.40
2018-03-14T15:07:45.870Z,51.40
2018-03-14T15:10:15.855Z,50.40
2018-03-14T15:12:44.922Z,50.20
2018-03-14T15:15:13.215Z,51.70
2018-03-14T15:17:41.508Z,51.20
2018-03-14T15:20:09.799Z,50.60
2018-03-14T15:22:38.058Z,50.60
2018-03-14T15:25:06.353Z,51.40
2018-03-14T15:27:34.671Z,51.70
2018-03-14T15:30:02.966Z,51.40
2018-03-14T15:32:31.271Z,51.10
2018-03-14T15:35:00.325Z,51.60
2018-03-14T15:37:28.627Z,51.50
2018-03-14T15:39:57.037Z,51.30
2018-03-14T15:42:26.421Z,51.20
2018-03-14T15:44:54.867Z,51.20
2018-03-14T15:47:23.408Z,51.60
2018-03-14T15:49:52.446Z,51.40
2018-03-14T15:52:20.739Z,51.30
2018-03-14T15:54:49.027Z,49.40
2018-03-14T15:57:17.345Z,50.20
2018-03-14T15:59:45.601Z,50.80
2018-03-14T16:02:13.907Z,51.40
2018-03-14T16:04:42.192Z,51.30
2018-03-14T16:07:10.526Z,50.80
2018-03-14T16:09:39.612Z,51.00
2018-03-14T16:12:07.890Z,51.00
2018-03-14T16:14:36.972Z,50.20
2018-03-14T16:17:05.231Z,50.20
2018-03-14T16:19:34.312Z,51.30
2018-03-14T16:22:02.587Z,50.90
2018-03-14T16:24:30.893Z,50.10
2018-03-14T16:26:59.956Z,50.40
2018-03-14T16:29:28.235Z,50.40
2018-03-14T16:31:56.599Z,50.20
2018-03-14T16:34:24.970Z,50.90
2018-03-14T16:36:53.268Z,50.90
2018-03-14T16:39:21.582Z,51.10
2018-03-14T16:41:49.868Z,49.60
2018-03-14T16:44:18.375Z,49.40
2018-03-14T16:46:46.654Z,49.20
2018-03-14T16:49:14.943Z,49.60
2018-03-14T16:51:43.220Z,49.40
2018-03-14T16:54:13.032Z,50.70
2018-03-14T16:56:41.327Z,50.70
2018-03-14T16:59:10.379Z,51.70
2018-03-14T17:01:38.647Z,51.70
2018-03-14T17:04:06.961Z,52.40
2018-03-14T17:06:35.238Z,52.70
2018-03-14T17:09:03.474Z,53.20
2018-03-14T17:11:31.766Z,53.40
2018-03-14T17:14:00.138Z,53.50
2018-03-14T17:16:28.442Z,53.60
2018-03-14T17:18:56.727Z,53.80
2018-03-14T17:21:25.793Z,54.10
2018-03-14T17:23:54.144Z,54.10
2018-03-14T17:26:22.431Z,54.20
2018-03-14T17:28:50.799Z,54.40
2018-03-14T17:31:19.086Z,54.40
2018-03-14T17:33:47.367Z,54.90
2018-03-14T17:36:15.670Z,54.50
2018-03-14T17:38:43.963Z,54.90
2018-03-14T17:41:12.546Z,55.30
2018-03-14T17:43:41.612Z,55.90
2018-03-14T17:46:09.897Z,55.90
2018-03-14T17:48:39.092Z,55.70
2018-03-14T17:51:08.155Z,56.00
2018-03-14T17:53:36.467Z,56.70
2018-03-14T17:56:04.785Z,56.70
2018-03-14T17:58:33.050Z,57.40
2018-03-14T18:01:01.328Z,57.40
2018-03-14T18:03:29.644Z,57.50
2018-03-14T18:05:57.952Z,57.60
2018-03-14T18:08:27.026Z,57.80
2018-03-14T18:10:55.392Z,57.70
2018-03-14T18:13:23.801Z,57.80
2018-03-14T18:15:52.843Z,58.00
2018-03-14T18:18:21.111Z,57.90
2018-03-14T18:20:49.458Z,58.10
2018-03-14T18:23:17.770Z,58.20
2018-03-14T18:25:46.031Z,58.40
2018-03-14T18:28:14.349Z,58.80
2018-03-14T18:30:42.603Z,59.50
2018-03-14T18:33:10.857Z,60.80
2018-03-14T18:35:39.145Z,62.30
2018-03-14T18:38:07.444Z,63.60
2018-03-14T18:40:37.283Z,65.80
2018-03-14T18:43:06.355Z,66.50
2018-03-14T18:45:35.467Z,67.30
2018-03-14T18:48:04.515Z,68.80
2018-03-14T18:50:32.797Z,67.80
2018-03-14T18:53:01.088Z,68.30
2018-03-14T18:55:29.394Z,68.60
2018-03-14T18:57:57.701Z,69.00
2018-03-14T19:00:26.126Z,69.20
2018-03-14T19:02:54.391Z,69.50
2018-03-14T19:05:22.736Z,69.90
2018-03-14T19:07:51.025Z,70.10
2018-03-14T19:10:19.492Z,70.30
2018-03-14T19:12:47.803Z,70.60
2018-03-14T19:15:16.264Z,70.80
2018-03-14T19:17:44.573Z,71.00
2018-03-14T19:20:13.648Z,71.60
2018-03-14T19:22:41.951Z,71.60
2018-03-14T19:25:11.030Z,72.00
2018-03-14T19:27:40.157Z,72.30
2018-03-14T19:30:08.377Z,72.30
2018-03-14T19:32:36.699Z,72.60
2018-03-14T19:35:04.993Z,72.80
2018-03-14T19:37:33.284Z,72.90
2018-03-14T19:40:01.611Z,73.00
2018-03-14T19:42:30.702Z,73.50
2018-03-14T19:44:59.767Z,73.60
2018-03-14T19:47:28.090Z,73.60
2018-03-14T19:49:56.366Z,73.80
2018-03-14T19:52:24.723Z,73.80
2018-03-14T19:54:53.777Z,74.30
2018-03-14T19:57:22.102Z,74.20
2018-03-14T19:59:50.443Z,74.30
2018-03-14T20:02:18.783Z,74.60
2018-03-14T20:04:47.111Z,74.80
2018-03-14T20:07:15.400Z,75.00
2018-03-14T20:09:44.634Z,75.40
2018-03-14T20:12:12.948Z,75.30
2018-03-14T20:14:41.258Z,75.60
2018-03-14T20:17:09.570Z,75.80
2018-03-14T20:19:37.884Z,76.10
2018-03-14T20:22:06.171Z,76.20
2018-03-14T20:24:35.256Z,77.40
2018-03-14T20:27:03.574Z,76.50
2018-03-14T20:29:32.021Z,76.80
2018-03-14T20:32:01.290Z,77.20
2018-03-14T20:34:29.628Z,77.00
2018-03-14T20:36:58.746Z,77.80
2018-03-14T20:39:27.061Z,77.30
2018-03-14T20:41:56.149Z,77.80
2018-03-14T20:44:24.471Z,77.60
2018-03-14T20:46:52.767Z,77.80
2018-03-14T20:49:21.096Z,78.10
2018-03-14T20:51:49.446Z,79.20
2018-03-14T20:54:17.728Z,78.30
2018-03-14T20:56:46.787Z,79.70
2018-03-14T20:59:15.084Z,78.70
2018-03-14T21:01:43.503Z,78.80
2018-03-14T21:04:12.534Z,79.20
2018-03-14T21:06:40.939Z,79.10
2018-03-14T21:09:09.212Z,79.30
2018-03-14T21:11:37.545Z,79.40
2018-03-14T21:14:05.852Z,79.50
2018-03-14T21:16:34.169Z,79.60
2018-03-14T21:19:03.284Z,79.60
2018-03-14T21:21:31.681Z,79.60
2018-03-14T21:24:00.200Z,79.50
2018-03-14T21:26:29.292Z,80.10
2018-03-14T21:28:57.641Z,79.20
2018-03-14T21:31:25.980Z,79.00
2018-03-14T21:33:54.250Z,78.80
2018-03-14T21:36:22.541Z,78.60
2018-03-14T21:38:50.858Z,78.50
2018-03-14T21:41:19.309Z,78.30
2018-03-14T21:43:47.603Z,78.10
2018-03-14T21:46:16.268Z,77.90
2018-03-14T21:48:45.583Z,77.50
2018-03-14T21:51:13.973Z,77.40
2018-03-14T21:53:42.171Z,77.00
2018-03-14T21:56:11.217Z,76.50
2018-03-14T21:58:39.628Z,76.40
2018-03-14T22:01:07.865Z,76.00
2018-03-14T22:03:36.161Z,75.90
2018-03-14T22:06:04.500Z,75.50
2018-03-14T22:08:32.868Z,75.30
2018-03-14T22:11:01.140Z,75.20
2018-03-14T22:13:29.443Z,74.90
2018-03-14T22:15:57.715Z,74.50
2018-03-14T22:18:26.126Z,74.20
2018-03-14T22:20:54.449Z,74.10
2018-03-14T22:23:22.847Z,74.10
2018-03-14T22:25:51.390Z,74.30
2018-03-14T22:28:20.420Z,74.40
2018-03-14T22:30:48.712Z,74.20
2018-03-14T22:33:17.000Z,73.90
2018-03-14T22:35:45.377Z,73.80
2018-03-14T22:38:13.649Z,73.80
2018-03-14T22:40:41.962Z,73.60
2018-03-14T22:43:10.999Z,73.10
2018-03-14T22:45:39.316Z,73.10
2018-03-14T22:48:07.604Z,73.00
2018-03-14T22:50:36.658Z,72.90
2018-03-14T22:53:04.955Z,72.80
2018-03-14T22:55:34.011Z,72.70
2018-03-14T22:58:02.352Z,72.70
2018-03-14T23:00:31.368Z,72.80
2018-03-14T23:02:59.658Z,72.70
2018-03-14T23:05:27.979Z,72.90
2018-03-14T23:07:57.193Z,72.90
2018-03-14T23:10:25.553Z,72.80
2018-03-14T23:12:53.859Z,72.80
2018-03-14T23:15:22.129Z,72.70
2018-03-14T23:17:50.412Z,72.50
2018-03-14T23:20:18.691Z,72.70
2018-03-14T23:22:46.993Z,72.70
2018-03-14T23:25:15.273Z,72.60
2018-03-14T23:27:43.612Z,72.70
2018-03-14T23:30:12.627Z,72.70
2018-03-14T23:32:41.539Z,72.50
2018-03-14T23:35:09.809Z,72.60
2018-03-14T23:37:38.275Z,72.50
2018-03-14T23:40:06.556Z,73.10
2018-03-14T23:42:34.839Z,72.00
2018-03-14T23:45:03.117Z,72.00
2018-03-14T23:47:32.207Z,71.80
2018-03-14T23:50:00.484Z,71.80
2018-03-14T23:52:28.742Z,71.70
2018-03-14T23:54:57.066Z,71.60
2018-03-14T23:57:26.269Z,71.40
2018-03-14T23:59:55.466Z,71.40
